createdAt,value
2018-06-23T00:02:28.234Z,4.80
2018-06-23T00:04:56.856Z,4.60
2018-06-23T00:07:25.514Z,4.83
2018-06-23T00:09:54.116Z,4.63
2018-06-23T00:12:22.738Z,3.90
2018-06-23T00:14:52.355Z,4.07
2018-06-23T00:17:20.972Z,4.23
2018-06-23T00:19:49.607Z,3.80
2018-06-23T00:22:18.218Z,4.23
2018-06-23T00:24:46.807Z,4.83
2018-06-23T00:27:15.389Z,4.30
2018-06-23T00:29:44.104Z,4.53
2018-06-23T00:32:12.723Z,5.10
2018-06-23T00:34:41.326Z,4.93
2018-06-23T00:37:09.948Z,5.00
2018-06-23T00:39:38.536Z,4.70
2018-06-23T00:42:07.266Z,4.23
2018-06-23T00:44:35.884Z,4.57
2018-06-23T00:47:04.446Z,3.93
2018-06-23T00:49:33.058Z,5.30
2018-06-23T00:52:01.675Z,4.43
2018-06-23T00:54:30.271Z,4.43
2018-06-23T00:56:58.874Z,4.47
2018-06-23T00:59:39.686Z,5.50
2018-06-23T01:02:14.609Z,4.80
2018-06-23T01:04:43.177Z,5.50
2018-06-23T01:07:11.866Z,4.60
2018-06-23T01:09:40.453Z,4.10
2018-06-23T01:12:09.109Z,4.50
2018-06-23T01:14:37.770Z,4.43
2018-06-23T01:17:08.807Z,5.40
2018-06-23T01:19:37.691Z,5.03
2018-06-23T01:22:06.205Z,4.70
2018-06-23T01:24:34.784Z,5.30
2018-06-23T01:27:03.358Z,5.67
2018-06-23T01:29:32.110Z,5.40
2018-06-23T01:32:02.827Z,5.13
2018-06-23T01:34:31.312Z,5.70
2018-06-23T01:36:59.929Z,5.27
2018-06-23T01:39:28.516Z,4.47
2018-06-23T01:41:57.198Z,5.50
2018-06-23T01:44:25.831Z,5.30
2018-06-23T01:46:54.807Z,4.57
2018-06-23T01:49:23.426Z,5.17
2018-06-23T01:51:52.006Z,4.87
2018-06-23T01:54:20.647Z,6.30
2018-06-23T01:56:49.269Z,5.90
2018-06-23T01:59:17.882Z,6.50
2018-06-23T02:01:46.524Z,5.77
2018-06-23T02:04:15.140Z,6.50
2018-06-23T02:06:43.743Z,7.50
2018-06-23T02:09:12.340Z,5.70
2018-06-23T02:11:40.955Z,6.17
2018-06-23T02:14:14.874Z,6.40
2018-06-23T02:16:48.824Z,6.10
2018-06-23T02:20:24.579Z,5.60
2018-06-23T02:22:58.427Z,6.50
2018-06-23T02:25:32.066Z,6.87
2018-06-23T02:28:06.035Z,6.93
2018-06-23T02:30:40.798Z,6.07
2018-06-23T02:33:14.759Z,6.53
2018-06-23T02:35:43.359Z,5.77
2018-06-23T02:38:11.972Z,6.87
2018-06-23T02:40:40.477Z,5.07
2018-06-23T02:43:09.108Z,5.30
2018-06-23T02:45:37.672Z,6.13
2018-06-23T02:48:06.294Z,5.97
2018-06-23T02:50:34.851Z,5.80
2018-06-23T02:53:03.469Z,5.70
2018-06-23T02:55:32.104Z,7.13
2018-06-23T02:58:00.667Z,6.17
2018-06-23T03:00:29.175Z,6.70
2018-06-23T03:02:57.719Z,6.60
2018-06-23T03:05:26.277Z,6.13
2018-06-23T03:07:54.856Z,6.90
2018-06-23T03:10:23.411Z,6.13
2018-06-23T03:12:52.034Z,6.40
2018-06-23T03:15:20.579Z,6.40
2018-06-23T03:17:49.234Z,6.70
2018-06-23T03:20:17.805Z,6.53
2018-06-23T03:22:46.438Z,6.10
2018-06-23T03:25:15.040Z,6.43
2018-06-23T03:27:43.692Z,6.93
2018-06-23T03:30:12.271Z,6.00
2018-06-23T03:32:40.912Z,6.43
2018-06-23T03:35:09.569Z,6.90
2018-06-23T03:37:39.174Z,7.40
2018-06-23T03:40:07.707Z,7.00
2018-06-23T03:42:36.287Z,7.00
2018-06-23T03:45:04.968Z,6.90
2018-06-23T03:47:33.530Z,7.30
2018-06-23T03:50:02.099Z,7.13
2018-06-23T03:52:30.679Z,6.90
2018-06-23T03:54:59.314Z,6.37
2018-06-23T03:57:28.026Z,5.70
2018-06-23T03:59:56.699Z,6.70
2018-06-23T04:02:25.237Z,6.00
2018-06-23T04:04:53.747Z,6.77
2018-06-23T04:07:22.416Z,6.63
2018-06-23T04:09:51.020Z,6.23
2018-06-23T04:12:19.526Z,7.13
2018-06-23T04:14:48.129Z,6.53
2018-06-23T04:17:16.710Z,6.37
2018-06-23T04:19:45.257Z,6.97
2018-06-23T04:22:13.834Z,6.70
2018-06-23T04:24:42.486Z,6.43
2018-06-23T04:27:11.089Z,6.70
2018-06-23T04:29:39.587Z,6.93
2018-06-23T04:32:08.256Z,6.47
2018-06-23T04:34:37.858Z,6.50
2018-06-23T04:37:06.424Z,7.40
2018-06-23T04:39:35.013Z,6.27
2018-06-23T04:42:03.667Z,7.50
2018-06-23T04:44:32.464Z,7.10
2018-06-23T04:47:01.069Z,7.63
2018-06-23T04:49:29.681Z,6.87
2018-06-23T04:55:00.826Z,6.07
2018-06-23T04:57:29.375Z,5.87
2018-06-23T04:59:57.944Z,6.50
2018-06-23T05:02:26.493Z,6.63
2018-06-23T05:04:55.150Z,7.33
2018-06-23T05:07:23.866Z,8.30
2018-06-23T05:09:52.461Z,6.90
2018-06-23T05:12:22.101Z,6.60
2018-06-23T05:14:50.825Z,6.63
2018-06-23T05:17:19.579Z,7.20
2018-06-23T05:19:48.354Z,6.97
2018-06-23T05:22:16.976Z,7.23
2018-06-23T05:24:45.678Z,7.27
2018-06-23T05:27:14.327Z,7.53
2018-06-23T05:29:42.992Z,7.60
2018-06-23T05:32:11.701Z,7.73
2018-06-23T05:34:40.282Z,7.47
2018-06-23T05:37:08.936Z,7.20
2018-06-23T05:39:40.168Z,8.07
2018-06-23T05:42:11.437Z,7.53
2018-06-23T05:44:43.014Z,7.40
2018-06-23T05:47:12.152Z,7.30
2018-06-23T05:49:42.048Z,6.93
2018-06-23T05:52:10.588Z,6.60
2018-06-23T05:54:39.266Z,7.40
2018-06-23T05:57:07.885Z,8.03
2018-06-23T05:59:36.587Z,8.53
2018-06-23T06:02:05.207Z,7.60
2018-06-23T06:04:33.787Z,7.67
2018-06-23T06:07:03.565Z,7.17
2018-06-23T06:09:32.164Z,7.23
2018-06-23T06:12:00.753Z,8.23
2018-06-23T06:14:29.402Z,7.67
2018-06-23T06:17:31.565Z,8.60
2018-06-23T06:20:01.345Z,9.60
2018-06-23T06:22:31.083Z,8.20
2018-06-23T06:24:59.790Z,7.30
2018-06-23T06:27:28.550Z,7.97
2018-06-23T06:29:59.623Z,7.67
2018-06-23T06:32:28.542Z,8.40
2018-06-23T06:34:57.499Z,7.87
2018-06-23T06:37:26.085Z,6.97
2018-06-23T06:39:54.686Z,7.27
2018-06-23T06:42:24.327Z,8.00
2018-06-23T06:44:53.967Z,7.80
2018-06-23T06:47:22.710Z,7.80
2018-06-23T06:49:51.320Z,7.40
2018-06-23T06:52:19.873Z,7.50
2018-06-23T06:54:48.466Z,5.60
2018-06-23T06:57:18.179Z,7.07
2018-06-23T06:59:47.769Z,6.70
2018-06-23T07:02:18.450Z,6.37
2018-06-23T07:04:47.009Z,7.07
2018-06-23T07:07:19.376Z,6.90
2018-06-23T07:09:48.996Z,6.30
2018-06-23T07:12:18.706Z,6.47
2018-06-23T07:14:47.359Z,6.40
2018-06-23T07:17:15.983Z,7.20
2018-06-23T07:19:44.579Z,6.03
2018-06-23T07:22:13.261Z,7.30
2018-06-23T07:24:41.956Z,6.63
2018-06-23T07:27:10.616Z,6.73
2018-06-23T07:29:39.250Z,6.47
2018-06-23T07:32:07.848Z,7.90
2018-06-23T07:34:36.532Z,7.73
2018-06-23T07:37:05.044Z,6.43
2018-06-23T07:39:33.548Z,6.37
2018-06-23T07:42:02.185Z,6.40
2018-06-23T07:44:30.755Z,6.57
2018-06-23T07:46:59.406Z,7.50
2018-06-23T07:49:27.962Z,6.90
2018-06-23T07:51:57.630Z,6.97
2018-06-23T07:54:26.223Z,7.27
2018-06-23T07:56:54.826Z,7.00
2018-06-23T07:59:23.401Z,7.70
2018-06-23T08:01:52.353Z,7.07
2018-06-23T08:04:20.990Z,6.80
2018-06-23T08:06:49.643Z,6.57
2018-06-23T08:09:20.263Z,7.37
2018-06-23T08:11:48.896Z,7.20
2018-06-23T08:14:17.525Z,6.53
2018-06-23T08:16:46.155Z,7.50
2018-06-23T08:19:14.899Z,7.30
2018-06-23T08:21:43.574Z,7.27
2018-06-23T08:24:12.137Z,6.67
2018-06-23T08:26:42.103Z,5.80
2018-06-23T08:29:10.464Z,7.17
2018-06-23T08:31:39.194Z,6.63
2018-06-23T08:34:07.837Z,6.53
2018-06-23T08:36:36.491Z,6.53
2018-06-23T08:39:07.089Z,6.50
2018-06-23T08:41:35.763Z,6.97
2018-06-23T08:44:05.333Z,6.23
2018-06-23T08:46:33.939Z,6.43
2018-06-23T08:49:03.614Z,6.13
2018-06-23T08:51:32.273Z,6.30
2018-06-23T08:54:01.232Z,5.50
2018-06-23T08:56:29.896Z,5.07
2018-06-23T08:58:58.499Z,5.50
2018-06-23T09:01:28.137Z,6.20
2018-06-23T09:03:56.971Z,5.70
2018-06-23T09:06:25.696Z,5.67
2018-06-23T09:08:54.296Z,5.30
2018-06-23T09:11:22.927Z,5.37
2018-06-23T09:13:51.594Z,5.83
2018-06-23T09:16:20.270Z,6.57
2018-06-23T09:18:48.865Z,5.30
2018-06-23T09:21:17.500Z,5.23
2018-06-23T09:23:45.767Z,5.40
2018-06-23T09:26:14.011Z,4.20
2018-06-23T09:28:42.738Z,5.00
2018-06-23T09:31:11.320Z,5.27
2018-06-23T09:33:40.988Z,4.80
2018-06-23T09:36:09.601Z,5.40
2018-06-23T09:38:38.286Z,5.53
2018-06-23T09:41:06.952Z,4.60
2018-06-23T09:43:35.566Z,4.53
2018-06-23T09:46:04.241Z,4.60
2018-06-23T09:48:32.963Z,5.30
2018-06-23T09:51:01.450Z,4.07
2018-06-23T09:53:30.969Z,4.30
2018-06-23T09:55:59.635Z,4.60
2018-06-23T09:58:28.339Z,5.00
2018-06-23T10:00:56.949Z,4.40
2018-06-23T10:03:25.596Z,4.90
2018-06-23T10:05:54.130Z,4.50
2018-06-23T10:08:22.885Z,4.70
2018-06-23T10:10:51.538Z,4.47
2018-06-23T10:13:20.145Z,4.17
2018-06-23T10:15:49.831Z,4.10
2018-06-23T10:18:18.419Z,4.17
2018-06-23T10:20:47.063Z,4.10
2018-06-23T10:23:15.767Z,4.73
2018-06-23T10:25:44.061Z,4.87
2018-06-23T10:28:12.681Z,5.33
2018-06-23T10:30:41.232Z,5.50
2018-06-23T10:33:11.047Z,5.53
2018-06-23T10:35:39.775Z,5.83
2018-06-23T10:38:08.335Z,4.93
2018-06-23T10:40:37.158Z,5.47
2018-06-23T10:43:05.858Z,5.40
2018-06-23T10:45:34.405Z,4.10
2018-06-23T10:48:04.095Z,4.90
2018-06-23T10:50:32.753Z,4.87
2018-06-23T10:53:02.457Z,3.97
2018-06-23T10:55:30.690Z,5.23
2018-06-23T10:57:59.323Z,4.90
2018-06-23T11:00:27.913Z,5.10
2018-06-23T11:02:56.603Z,5.17
2018-06-23T11:05:25.186Z,4.57
2018-06-23T11:07:53.819Z,4.90
2018-06-23T11:10:22.381Z,5.00
2018-06-23T11:12:51.108Z,5.90
2018-06-23T11:15:19.717Z,5.80
2018-06-23T11:17:48.300Z,4.70
2018-06-23T11:20:16.864Z,4.77
2018-06-23T11:22:45.589Z,4.93
2018-06-23T11:25:14.381Z,4.50
2018-06-23T11:27:42.997Z,5.50
2018-06-23T11:30:11.655Z,4.73
2018-06-23T11:32:40.266Z,6.00
2018-06-23T11:35:09.037Z,6.33
2018-06-23T11:37:37.555Z,5.80
2018-06-23T11:40:06.226Z,5.13
2018-06-23T11:42:34.827Z,4.47
2018-06-23T11:45:03.615Z,4.70
2018-06-23T11:47:32.226Z,5.27
2018-06-23T11:50:01.211Z,4.90
2018-06-23T11:52:29.933Z,4.80
2018-06-23T11:54:59.592Z,5.03
2018-06-23T11:57:28.284Z,5.07
2018-06-23T11:59:56.802Z,5.40
2018-06-23T12:02:25.391Z,4.43
2018-06-23T12:04:53.988Z,4.50
2018-06-23T12:07:22.620Z,5.60
2018-06-23T12:09:51.186Z,4.40
2018-06-23T12:12:19.934Z,4.13
2018-06-23T12:14:48.521Z,5.13
2018-06-23T12:17:18.100Z,5.10
2018-06-23T12:19:46.700Z,6.27
2018-06-23T12:22:15.369Z,5.17
2018-06-23T12:24:44.019Z,5.10
2018-06-23T12:27:12.552Z,5.17
2018-06-23T12:29:41.280Z,4.13
2018-06-23T12:32:09.969Z,4.03
2018-06-23T12:34:38.645Z,4.77
2018-06-23T12:37:07.354Z,5.00
2018-06-23T12:39:35.907Z,4.77
2018-06-23T12:42:04.643Z,4.70
2018-06-23T12:44:33.307Z,5.00
2018-06-23T12:47:01.929Z,4.73
2018-06-23T12:49:30.548Z,5.03
2018-06-23T12:51:59.165Z,4.70
2018-06-23T12:54:27.807Z,4.63
2018-06-23T12:56:56.471Z,5.17
2018-06-23T12:59:25.424Z,6.53
2018-06-23T13:01:54.026Z,6.10
2018-06-23T13:04:22.631Z,5.33
2018-06-23T13:06:51.268Z,5.53
2018-06-23T13:09:20.000Z,5.83
2018-06-23T13:11:48.621Z,5.60
2018-06-23T13:14:17.382Z,5.07
2018-06-23T13:16:45.967Z,5.77
2018-06-23T13:19:14.578Z,6.10
2018-06-23T13:21:43.149Z,5.43
2018-06-23T13:24:11.808Z,5.57
2018-06-23T13:26:40.375Z,6.53
2018-06-23T13:29:09.021Z,5.50
2018-06-23T13:31:37.682Z,6.20
2018-06-23T13:34:06.372Z,7.13
2018-06-23T13:36:34.971Z,6.17
2018-06-23T13:39:04.093Z,6.30
2018-06-23T13:41:32.734Z,6.63
2018-06-23T13:44:01.389Z,6.87
2018-06-23T13:46:29.716Z,5.90
2018-06-23T13:48:58.361Z,5.03
2018-06-23T13:51:27.006Z,5.20
2018-06-23T13:53:55.608Z,4.33
2018-06-23T13:56:24.389Z,5.30
2018-06-23T13:58:53.059Z,5.07
2018-06-23T14:01:21.676Z,5.00
2018-06-23T14:03:50.308Z,6.10
2018-06-23T14:06:18.855Z,5.37
2018-06-23T14:08:47.436Z,5.57
2018-06-23T14:11:16.064Z,5.97
2018-06-23T14:13:44.666Z,5.20
2018-06-23T14:16:13.310Z,4.87
2018-06-23T14:18:41.916Z,5.50
2018-06-23T14:21:10.557Z,4.60
2018-06-23T14:23:39.148Z,4.97
2018-06-23T14:26:07.756Z,4.80
2018-06-23T14:28:36.438Z,5.20
2018-06-23T14:31:05.123Z,4.63
2018-06-23T14:33:33.752Z,4.80
2018-06-23T14:36:02.392Z,4.90
2018-06-23T14:38:30.976Z,4.40
2018-06-23T14:40:59.587Z,4.20
2018-06-23T14:43:28.564Z,3.83
2018-06-23T14:45:57.188Z,3.90
2018-06-23T14:48:26.942Z,3.90
2018-06-23T14:50:55.712Z,4.00
2018-06-23T14:53:24.662Z,3.93
2018-06-23T14:55:53.412Z,4.40
2018-06-23T14:58:22.018Z,3.63
2018-06-23T15:00:50.719Z,3.50
2018-06-23T15:03:19.386Z,3.80
2018-06-23T15:05:49.019Z,3.10
2018-06-23T15:08:28.823Z,3.03
2018-06-23T15:11:08.641Z,3.93
2018-06-23T15:13:37.299Z,3.70
2018-06-23T15:16:06.017Z,3.30
2018-06-23T15:18:34.604Z,4.40
2018-06-23T15:21:03.246Z,4.10
2018-06-23T15:23:31.895Z,4.57
2018-06-23T15:26:00.564Z,4.63
2018-06-23T15:28:29.125Z,5.13
2018-06-23T15:30:57.716Z,4.67
2018-06-23T15:33:26.373Z,4.37
2018-06-23T15:35:54.995Z,4.40
2018-06-23T15:38:23.618Z,4.73
2018-06-23T15:40:52.270Z,4.30
2018-06-23T15:43:22.955Z,4.87
2018-06-23T15:45:51.596Z,4.53
2018-06-23T15:48:20.292Z,4.63
2018-06-23T15:50:48.835Z,4.20
2018-06-23T15:53:17.428Z,4.30
2018-06-23T15:55:46.048Z,4.00
2018-06-23T15:58:14.643Z,3.83
2018-06-23T16:00:43.198Z,3.50
2018-06-23T16:03:12.073Z,3.33
2018-06-23T16:05:40.636Z,3.77
2018-06-23T16:08:09.164Z,4.20
2018-06-23T16:10:37.943Z,3.47
2018-06-23T16:13:06.506Z,4.27
2018-06-23T16:15:35.191Z,4.10
2018-06-23T16:18:03.978Z,3.87
2018-06-23T16:20:32.485Z,3.83
2018-06-23T16:23:01.293Z,3.97
2018-06-23T16:25:29.846Z,4.60
2018-06-23T16:27:58.561Z,4.07
2018-06-23T16:30:27.111Z,4.00
2018-06-23T16:32:56.428Z,3.67
2018-06-23T16:35:25.380Z,4.90
2018-06-23T16:37:53.717Z,4.50
2018-06-23T16:40:22.254Z,4.73
2018-06-23T16:42:50.911Z,4.03
2018-06-23T16:45:19.577Z,4.47
2018-06-23T16:47:48.285Z,3.60
2018-06-23T16:50:16.838Z,4.77
2018-06-23T16:52:45.508Z,4.10
2018-06-23T16:55:14.196Z,4.13
2018-06-23T16:57:43.018Z,4.17
2018-06-23T17:00:11.622Z,4.00
2018-06-23T17:02:40.331Z,3.93
2018-06-23T17:05:08.859Z,4.83
2018-06-23T17:07:37.715Z,4.70
2018-06-23T17:10:06.319Z,4.20
2018-06-23T17:12:34.923Z,5.03
2018-06-23T17:15:03.616Z,3.90
2018-06-23T17:17:32.223Z,3.97
2018-06-23T17:20:00.906Z,4.13
2018-06-23T17:22:29.200Z,4.40
2018-06-23T17:24:57.461Z,3.93
2018-06-23T17:27:26.114Z,4.37
2018-06-23T17:29:54.707Z,3.83
2018-06-23T17:32:23.868Z,5.00
2018-06-23T17:34:56.039Z,4.03
2018-06-23T17:37:24.685Z,4.10
2018-06-23T17:39:56.868Z,4.50
2018-06-23T17:42:25.139Z,4.37
2018-06-23T17:44:53.736Z,4.67
2018-06-23T17:47:22.418Z,3.73
2018-06-23T17:49:51.133Z,3.60
2018-06-23T17:52:19.909Z,3.80
2018-06-23T17:54:48.480Z,3.87
2018-06-23T17:57:17.215Z,3.47
2018-06-23T17:59:45.807Z,3.60
2018-06-23T18:02:14.426Z,2.80
2018-06-23T18:04:43.008Z,3.70
2018-06-23T18:07:11.627Z,3.27
2018-06-23T18:09:40.318Z,2.80
2018-06-23T18:12:08.953Z,2.73
2018-06-23T18:14:37.597Z,2.37
2018-06-23T18:17:06.206Z,3.17
2018-06-23T18:19:34.927Z,3.10
2018-06-23T18:22:03.579Z,3.10
2018-06-23T18:24:32.261Z,3.17
2018-06-23T18:27:00.903Z,2.37
2018-06-23T18:29:29.603Z,2.70
2018-06-23T18:31:58.261Z,2.90
2018-06-23T18:34:26.968Z,3.80
2018-06-23T18:36:55.643Z,3.00
2018-06-23T18:39:24.282Z,4.10
2018-06-23T18:41:52.842Z,3.00
2018-06-23T18:44:21.490Z,2.93
2018-06-23T18:46:50.159Z,3.03
2018-06-23T18:49:18.872Z,2.50
2018-06-23T18:51:47.489Z,3.60
2018-06-23T18:54:16.223Z,3.13
2018-06-23T18:56:44.862Z,3.90
2018-06-23T18:59:13.489Z,3.00
2018-06-23T19:01:42.239Z,3.07
2018-06-23T19:04:10.910Z,3.17
2018-06-23T19:06:40.586Z,3.17
2018-06-23T19:09:09.994Z,3.17
2018-06-23T19:11:38.948Z,3.33
2018-06-23T19:14:07.811Z,3.70
2018-06-23T19:16:36.466Z,2.60
2018-06-23T19:19:06.135Z,2.90
2018-06-23T19:21:34.768Z,3.40
2018-06-23T19:24:03.455Z,3.23
2018-06-23T19:26:32.116Z,3.53
2018-06-23T19:29:00.707Z,3.10
2018-06-23T19:31:29.217Z,3.43
2018-06-23T19:33:57.965Z,3.73
2018-06-23T19:36:26.684Z,2.93
2018-06-23T19:38:55.355Z,3.50
2018-06-23T19:41:27.452Z,2.70
2018-06-23T19:43:57.178Z,3.90
2018-06-23T19:46:25.863Z,3.10
2018-06-23T19:48:54.438Z,3.30
2018-06-23T19:51:23.059Z,3.13
2018-06-23T19:53:51.748Z,3.60
2018-06-23T19:56:20.380Z,3.23
2018-06-23T19:58:48.972Z,2.93
2018-06-23T20:01:17.704Z,2.97
2018-06-23T20:03:46.287Z,3.43
2018-06-23T20:06:14.983Z,3.07
2018-06-23T20:08:43.662Z,3.73
2018-06-23T20:11:12.228Z,3.87
2018-06-23T20:13:40.820Z,4.00
2018-06-23T20:16:09.116Z,3.53
2018-06-23T20:18:37.794Z,3.70
2018-06-23T20:21:06.392Z,4.40
2018-06-23T20:23:35.006Z,3.40
2018-06-23T20:26:03.617Z,4.60
2018-06-23T20:28:33.168Z,3.90
2018-06-23T20:31:01.849Z,3.50
2018-06-23T20:33:30.402Z,3.27
2018-06-23T20:35:58.986Z,4.20
2018-06-23T20:38:27.695Z,3.30
2018-06-23T20:40:56.448Z,4.00
2018-06-23T20:43:25.077Z,4.03
2018-06-23T20:45:53.670Z,4.10
2018-06-23T20:48:22.305Z,4.23
2018-06-23T20:50:50.919Z,3.83
2018-06-23T20:53:19.578Z,3.43
2018-06-23T20:55:48.194Z,3.90
2018-06-23T20:58:16.789Z,5.07
2018-06-23T21:00:45.395Z,3.90
2018-06-23T21:03:14.294Z,4.03
2018-06-23T21:05:42.948Z,4.23
2018-06-23T21:08:11.582Z,4.10
2018-06-23T21:10:44.325Z,5.23
2018-06-23T21:13:13.208Z,4.07
2018-06-23T21:15:41.871Z,4.27
2018-06-23T21:18:10.818Z,4.30
2018-06-23T21:20:39.424Z,4.20
2018-06-23T21:23:08.025Z,4.10
2018-06-23T21:25:36.649Z,4.43
2018-06-23T21:28:05.328Z,4.90
2018-06-23T21:30:33.964Z,4.63
2018-06-23T21:33:02.554Z,4.53
2018-06-23T21:35:31.287Z,4.63
2018-06-23T21:37:59.819Z,4.87
2018-06-23T21:40:28.077Z,5.77
2018-06-23T21:42:56.715Z,4.70
2018-06-23T21:45:25.337Z,5.37
2018-06-23T21:47:53.987Z,5.60
2018-06-23T21:50:22.585Z,5.60
2018-06-23T21:52:51.132Z,5.93
2018-06-23T21:55:19.405Z,5.27
2018-06-23T21:57:47.729Z,5.70
2018-06-23T22:00:38.790Z,5.43
2018-06-23T22:03:08.604Z,6.07
2018-06-23T22:05:37.313Z,5.50
2018-06-23T22:08:06.973Z,6.10
2018-06-23T22:10:35.577Z,6.70
2018-06-23T22:13:04.366Z,6.20
2018-06-23T22:15:33.003Z,6.63
2018-06-23T22:18:02.708Z,5.87
2018-06-23T22:20:31.323Z,5.80
2018-06-23T22:22:59.874Z,6.50
2018-06-23T22:25:28.484Z,5.80
2018-06-23T22:27:57.191Z,6.23
2018-06-23T22:30:25.436Z,6.97
2018-06-23T22:32:54.011Z,7.90
2018-06-23T22:35:22.636Z,6.50
2018-06-23T22:37:51.260Z,7.40
2018-06-23T22:40:19.935Z,7.60
2018-06-23T22:42:48.534Z,6.80
2018-06-23T22:45:17.197Z,6.47
2018-06-23T22:47:45.847Z,8.07
2018-06-23T22:50:14.458Z,7.00
2018-06-23T22:52:43.055Z,7.17
2018-06-23T22:55:11.748Z,7.70
2018-06-23T22:57:40.333Z,6.77
2018-06-23T23:00:10.315Z,7.80
2018-06-23T23:02:38.966Z,7.30
2018-06-23T23:05:07.970Z,7.13
2018-06-23T23:07:36.630Z,8.40
2018-06-23T23:10:05.484Z,8.23
2018-06-23T23:12:34.243Z,8.30
2018-06-23T23:15:03.028Z,7.73
2018-06-23T23:17:31.721Z,7.83
2018-06-23T23:20:00.307Z,7.93
2018-06-23T23:22:29.088Z,7.67
2018-06-23T23:24:57.703Z,7.60
2018-06-23T23:27:26.403Z,7.93
2018-06-23T23:29:54.961Z,7.23
2018-06-23T23:32:23.487Z,6.80
2018-06-23T23:34:52.276Z,8.00
2018-06-23T23:37:21.131Z,6.60
2018-06-23T23:39:49.821Z,7.10
2018-06-23T23:42:18.402Z,6.83
2018-06-23T23:44:47.032Z,7.70
2018-06-23T23:47:15.667Z,8.03
2018-06-23T23:49:44.269Z,7.93
2018-06-23T23:52:12.881Z,7.00
2018-06-23T23:54:41.512Z,8.47
2018-06-23T23:57:10.125Z,7.77
2018-06-23T23:59:38.690Z,7.00
